Time;durP1;ratioP1;P1;durP2;ratioP2;P2;SDS_P1;SDS_P2;PMS_P1;PMS_P2;Temp;Humidity;BMP_temperature;BMP_pressure;BME280_temperature;BME280_humidity;BME280_pressure;Samples;Min_cycle;Max_cycle;Signal;HPM_P1;HPM_P2
2022/06/03 00:02:13;;;;;;;17.40;10.75;;;;;;;24.16;70.51;101347.03;5069104;28;20040;-80
2022/06/03 00:05:11;;;;;;;13.77;10.88;;;;;;;24.14;70.40;101348.78;5085617;28;20027;-80
2022/06/03 00:08:12;;;;;;;17.52;11.07;;;;;;;24.16;70.57;101354.13;5066017;28;20041;-79
2022/06/03 00:10:52;;;;;;;15.65;10.55;;;;;;;24.15;70.42;101345.25;5045119;28;20036;-79
2022/06/03 00:13:30;;;;;;;19.20;11.20;;;;;;;24.16;70.37;101354.13;5064021;28;20024;-79
2022/06/03 00:16:18;;;;;;;17.58;10.25;;;;;;;24.15;70.28;101357.69;5082923;28;20602;-79
2022/06/03 00:19:11;;;;;;;15.10;10.32;;;;;;;24.14;70.39;101359.47;5069938;28;20419;-79
2022/06/03 00:21:59;;;;;;;14.85;10.20;;;;;;;24.12;70.26;101350.53;5072072;28;20034;-79
2022/06/03 00:24:54;;;;;;;16.90;10.40;;;;;;;24.11;70.30;101356.78;5082330;28;20051;-79
2022/06/03 00:27:57;;;;;;;20.05;10.80;;;;;;;24.11;70.20;101354.13;5076344;28;20500;-79
2022/06/03 00:30:40;;;;;;;15.80;10.32;;;;;;;24.10;70.18;101351.44;5084330;28;20036;-79
2022/06/03 00:33:39;;;;;;;16.42;9.90;;;;;;;24.11;69.88;101354.13;5081487;28;20028;-79
2022/06/03 00:36:11;;;;;;;15.85;10.00;;;;;;;24.12;70.07;101357.66;5078487;28;20107;-79
2022/06/03 00:39:08;;;;;;;23.05;10.80;;;;;;;24.10;69.93;101362.97;5078694;28;20028;-80
2022/06/03 00:41:37;;;;;;;20.10;10.23;;;;;;;24.10;70.03;101359.44;5081426;28;20055;-79
2022/06/03 00:44:17;;;;;;;16.30;10.00;;;;;;;24.10;69.85;101365.66;5081774;28;20029;-80
2022/06/03 00:47:06;;;;;;;15.98;10.20;;;;;;;24.09;69.86;101371.88;5077834;28;20116;-79
2022/06/03 00:49:48;;;;;;;17.85;10.02;;;;;;;24.03;69.84;101365.63;5068112;28;20024;-80
2022/06/03 00:52:46;;;;;;;17.90;10.38;;;;;;;24.08;69.96;101370.09;5063046;28;20059;-80
2022/06/03 00:55:52;;;;;;;17.80;10.05;;;;;;;24.09;69.84;101382.56;5071208;28;20051;-80
2022/06/03 00:58:40;;;;;;;14.90;10.07;;;;;;;24.07;70.05;101384.31;5060876;28;20159;-79
2022/06/03 01:01:15;;;;;;;17.42;10.13;;;;;;;24.05;69.84;101388.75;5088142;28;20393;-80
2022/06/03 01:04:17;;;;;;;18.67;10.45;;;;;;;24.06;69.87;101379.84;5071918;28;20027;-80
2022/06/03 01:07:00;;;;;;;16.63;9.55;;;;;;;24.00;69.92;101371.78;5070173;28;20493;-80
2022/06/03 01:10:14;;;;;;;18.83;10.57;;;;;;;24.06;69.78;101377.19;5062707;28;20027;-80
2022/06/03 01:13:07;;;;;;;15.98;9.85;;;;;;;24.02;69.98;101377.16;5058015;28;20598;-79
2022/06/03 01:15:37;;;;;;;17.77;9.80;;;;;;;24.03;69.84;101378.97;5067772;28;20041;-79
2022/06/03 01:18:13;;;;;;;15.60;9.77;;;;;;;24.02;69.84;101371.81;5076519;28;20032;-80
2022/06/03 01:20:44;;;;;;;16.80;10.40;;;;;;;24.00;69.91;101365.56;5068294;28;20020;-80
2022/06/03 01:23:21;;;;;;;16.27;9.98;;;;;;;24.01;69.86;101365.59;5085884;28;20064;-79
2022/06/03 01:26:21;;;;;;;16.17;9.90;;;;;;;24.01;69.89;101370.94;5067341;28;20025;-80
2022/06/03 01:29:05;;;;;;;18.13;10.07;;;;;;;24.00;69.86;101368.22;5066392;28;20016;-80
2022/06/03 01:32:18;;;;;;;15.05;9.40;;;;;;;24.01;69.80;101370.94;5078917;28;20020;-80
2022/06/03 01:35:08;;;;;;;18.13;9.52;;;;;;;23.99;69.87;101383.38;4994038;28;20027;-79
2022/06/03 01:37:45;;;;;;;17.90;9.75;;;;;;;23.98;69.59;101377.13;4989662;28;20129;-80
2022/06/03 01:40:19;;;;;;;16.98;10.23;;;;;;;23.99;69.52;101378.03;5050132;28;20109;-80
2022/06/03 01:42:54;;;;;;;18.58;9.90;;;;;;;23.97;69.53;101372.66;5074226;28;20530;-80
2022/06/03 01:45:57;;;;;;;18.83;9.55;;;;;;;23.92;69.51;101365.53;5077829;28;20025;-79
2022/06/03 01:48:40;;;;;;;16.33;9.93;;;;;;;23.97;69.35;101375.34;5068454;28;20032;-80
2022/06/03 01:51:12;;;;;;;18.33;9.55;;;;;;;23.95;69.44;101377.09;5071970;28;20024;-80
2022/06/03 01:53:55;;;;;;;14.25;9.45;;;;;;;23.91;69.66;101385.06;5078541;28;20537;-80
2022/06/03 01:56:58;;;;;;;16.42;9.73;;;;;;;23.93;69.49;101386.84;5069266;28;20035;-80
2022/06/03 01:59:43;;;;;;;17.23;10.07;;;;;;;23.85;69.73;101377.88;5070115;28;20024;-80
2022/06/03 02:02:27;;;;;;;17.05;10.00;;;;;;;23.91;69.64;101385.94;5075095;28;20047;-79
2022/06/03 02:05:11;;;;;;;19.02;10.15;;;;;;;23.91;69.50;101399.28;5071760;28;20051;-80
2022/06/03 02:08:19;;;;;;;15.25;9.70;;;;;;;23.90;69.75;101402.84;5078477;28;20020;-80
2022/06/03 02:11:06;;;;;;;14.60;9.80;;;;;;;23.88;69.52;101393.94;5027822;28;20164;-81
2022/06/03 02:14:08;;;;;;;15.63;9.77;;;;;;;23.91;69.61;101406.41;5065381;28;20036;-80
2022/06/03 02:16:34;;;;;;;15.77;8.98;;;;;;;23.90;69.60;101405.53;5064772;28;20512;-79
2022/06/03 02:19:03;;;;;;;;;;;;;;;23.91;69.39;101407.28;5079597;28;20045;-80
2022/06/03 02:21:47;;;;;;;15.02;9.85;;;;;;;23.86;69.75;101417.03;5082847;28;19965;-81
2022/06/03 02:24:18;;;;;;;17.00;9.60;;;;;;;23.85;69.52;101415.22;5058201;28;20038;-79
2022/06/03 02:27:09;;;;;;;18.55;9.85;;;;;;;23.85;69.73;101407.22;5077633;28;20501;-80
2022/06/03 02:32:35;;;;;;;16.00;9.95;;;;;;;23.81;69.77;101407.19;5056322;28;20086;-80
2022/06/03 02:35:13;;;;;;;;;;;;;;;23.88;69.52;101403.72;5056881;28;20032;-80
2022/06/03 02:38:09;;;;;;;15.15;9.85;;;;;;;23.73;69.59;101400.00;5054893;28;19931;-80
2022/06/03 02:41:02;;;;;;;17.50;10.10;;;;;;;23.83;69.63;101418.78;5056573;28;20051;-80
2022/06/03 02:43:42;;;;;;;17.23;9.52;;;;;;;23.79;69.59;101417.84;5063525;28;20274;-80
2022/06/03 02:46:52;;;;;;;17.13;10.18;;;;;;;23.83;69.74;101424.09;5080500;28;20119;-80
2022/06/03 02:49:49;;;;;;;16.77;10.32;;;;;;;23.77;69.63;101409.84;5063119;28;20096;-80
2022/06/03 02:52:21;;;;;;;16.88;9.95;;;;;;;23.79;69.74;101420.50;5079470;28;20033;-80
2022/06/03 02:54:55;;;;;;;16.63;9.05;;;;;;;23.76;69.60;101415.16;5069526;28;20028;-81
2022/06/03 02:57:51;;;;;;;16.05;9.40;;;;;;;23.80;69.69;101424.97;5073293;28;20082;-80
2022/06/03 03:00:20;;;;;;;16.52;9.05;;;;;;;23.81;69.66;101416.06;5067448;28;20021;-80
2022/06/03 03:03:09;;;;;;;16.92;9.55;;;;;;;23.78;69.57;101416.94;5069555;28;20081;-79
2022/06/03 03:05:38;;;;;;;15.93;9.05;;;;;;;23.73;70.03;101421.31;5075441;28;20029;-80
2022/06/03 03:08:21;;;;;;;18.38;9.50;;;;;;;23.77;69.72;101422.28;5068544;28;20483;-80
2022/06/03 03:11:10;;;;;;;18.27;9.13;;;;;;;23.80;69.49;101429.44;5073147;28;20016;-80
2022/06/03 03:14:14;;;;;;;14.27;9.10;;;;;;;23.64;69.67;101401.66;5072267;28;20044;-80
2022/06/03 03:17:17;;;;;;;18.15;9.00;;;;;;;23.77;69.53;101431.19;5078204;28;20048;-80
2022/06/03 03:20:15;;;;;;;13.90;9.32;;;;;;;23.76;69.69;101431.16;5073787;28;20017;-80
2022/06/03 03:22:47;;;;;;;18.95;9.13;;;;;;;23.75;69.77;101432.00;5083680;28;20085;-80
2022/06/03 03:25:46;;;;;;;17.95;9.65;;;;;;;23.72;69.66;101421.28;5068869;28;20487;-80
2022/06/03 03:28:24;;;;;;;16.60;9.50;;;;;;;23.77;69.66;101438.28;5072008;28;20055;-79
2022/06/03 03:31:26;;;;;;;15.85;9.40;;;;;;;23.75;69.82;101430.22;5065116;28;20044;-80
2022/06/03 03:34:13;;;;;;;14.70;9.52;;;;;;;23.75;69.67;101426.69;5072525;28;20040;-80
2022/06/03 03:37:14;;;;;;;15.85;9.82;;;;;;;23.71;69.89;101430.19;5079972;28;20032;-80
2022/06/03 03:39:58;;;;;;;16.92;9.52;;;;;;;23.74;69.91;101427.53;5073905;28;20042;-80
2022/06/03 03:42:29;;;;;;;18.20;9.57;;;;;;;23.61;69.92;101398.97;5073857;28;20280;-80
2022/06/03 03:45:23;;;;;;;15.32;9.35;;;;;;;23.73;69.74;101424.00;5068742;28;20112;-79
2022/06/03 03:48:26;;;;;;;15.70;9.80;;;;;;;23.73;69.92;101425.78;5079188;28;20099;-80
2022/06/03 03:51:26;;;;;;;13.80;9.80;;;;;;;23.73;69.97;101425.78;5070051;28;20024;-80
2022/06/03 03:53:51;;;;;;;15.25;9.98;;;;;;;23.71;70.02;101427.53;5066143;28;20029;-80
2022/06/03 03:56:26;;;;;;;;;;;;;;;23.76;69.77;101431.16;5084938;28;20675;-80
2022/06/03 03:59:13;;;;;;;15.25;9.93;;;;;;;23.72;70.06;101434.63;5071720;28;20042;-80
2022/06/03 04:01:56;;;;;;;13.32;9.57;;;;;;;23.72;70.06;101434.63;5071676;28;20506;-80
2022/06/03 04:04:42;;;;;;;14.10;10.07;;;;;;;23.67;70.38;101429.25;5072605;28;20099;-80
2022/06/03 04:07:30;;;;;;;13.10;9.20;;;;;;;23.70;69.99;101434.59;5068910;28;20051;-79
2022/06/03 04:09:58;;;;;;;17.30;10.23;;;;;;;23.69;70.03;101429.28;5063117;28;20440;-80
2022/06/03 04:12:53;;;;;;;14.75;9.65;;;;;;;23.70;70.06;101428.38;5073077;28;20144;-80
2022/06/03 04:15:38;;;;;;;12.60;9.85;;;;;;;23.73;70.07;101425.78;5076764;28;20391;-80
2022/06/03 04:18:12;;;;;;;17.45;9.68;;;;;;;23.71;70.17;101422.19;5076095;28;20410;-79
2022/06/03 04:21:20;;;;;;;14.20;9.70;;;;;;;23.73;70.02;101424.00;5063696;28;20111;-80
2022/06/03 04:23:51;;;;;;;17.63;9.30;;;;;;;23.75;70.27;101432.00;5073365;28;20051;-81
2022/06/03 04:26:23;;;;;;;13.50;9.23;;;;;;;23.73;70.08;101426.66;5065470;28;20107;-80
2022/06/03 04:28:51;;;;;;;12.45;9.40;;;;;;;23.73;70.19;101424.00;5061859;28;20033;-80
2022/06/03 04:31:55;;;;;;;15.85;9.85;;;;;;;23.75;70.19;101422.22;5075042;28;20055;-81
2022/06/03 04:34:52;;;;;;;16.17;9.70;;;;;;;23.78;70.33;101421.41;5072074;28;20043;-81
2022/06/03 04:37:34;;;;;;;12.18;9.18;;;;;;;23.77;70.35;101431.19;5080644;28;20031;-80
2022/06/03 04:40:37;;;;;;;14.15;9.27;;;;;;;23.76;70.49;101431.16;5062658;28;20029;-80
2022/06/03 04:43:14;;;;;;;13.50;9.02;;;;;;;23.77;70.40;101444.50;5068168;28;20032;-80
2022/06/03 04:45:49;;;;;;;13.32;9.15;;;;;;;23.75;70.69;101443.56;5066713;28;20029;-80
2022/06/03 04:49:02;;;;;;;11.00;8.20;;;;;;;23.72;70.88;101448.84;5065174;28;20036;-79
2022/06/03 04:51:50;;;;;;;12.13;8.90;;;;;;;23.68;70.87;101441.69;5066104;28;20496;-80
2022/06/03 04:54:59;;;;;;;14.45;9.35;;;;;;;23.58;71.27;101429.16;5082617;28;20058;-79
2022/06/03 04:58:01;;;;;;;12.32;9.00;;;;;;;23.57;71.53;101446.91;5068869;28;20029;-80
2022/06/03 05:01:01;;;;;;;13.45;9.25;;;;;;;23.52;72.07;101461.97;5064677;28;20032;-80
2022/06/03 05:04:04;;;;;;;15.05;9.88;;;;;;;23.53;71.59;101457.53;5067345;28;20016;-79
2022/06/03 05:06:50;;;;;;;12.60;9.32;;;;;;;23.63;71.03;101466.53;5078117;28;20040;-77
2022/06/03 05:09:25;;;;;;;15.00;9.35;;;;;;;23.74;71.02;101479.09;5075690;28;20028;-78
2022/06/03 05:12:11;;;;;;;14.88;9.63;;;;;;;23.75;71.44;101480.91;5070886;28;20025;-77
2022/06/03 05:14:54;;;;;;;15.85;8.88;;;;;;;23.77;70.76;101478.31;5047971;28;20071;-80
2022/06/03 05:18:01;;;;;;;14.63;9.60;;;;;;;23.67;71.22;101482.59;5065605;28;20021;-80
2022/06/03 05:20:53;;;;;;;13.32;9.20;;;;;;;23.71;71.15;101491.53;4987479;28;20026;-80
2022/06/03 05:24:00;;;;;;;15.48;9.40;;;;;;;23.65;70.92;101483.47;5040194;28;20145;-80
2022/06/03 05:27:04;;;;;;;18.00;9.55;;;;;;;23.75;71.09;101494.25;5071710;28;20037;-80
2022/06/03 05:29:47;;;;;;;14.27;9.75;;;;;;;23.76;71.21;101492.50;5051197;28;20024;-80
2022/06/03 05:32:43;;;;;;;12.68;9.35;;;;;;;23.68;71.04;101486.13;5051015;28;20102;-80
2022/06/03 05:35:43;;;;;;;12.15;9.00;;;;;;;23.69;71.18;101482.63;5058303;28;20028;-81
2022/06/03 05:38:29;;;;;;;11.05;8.82;;;;;;;23.65;71.10;101476.34;5056510;28;20701;-80
2022/06/03 05:42:23;;;;;;;15.10;9.50;;;;;;;23.68;71.09;101481.69;5056474;28;20160;-80
2022/06/03 05:44:19;;;;;;;15.23;8.63;;;;;;;23.73;71.23;101497.78;5078223;28;20417;-80
2022/06/03 05:47:04;;;;;;;11.30;8.98;;;;;;;23.70;70.93;101498.59;5070240;28;20185;-81
2022/06/03 05:49:42;;;;;;;12.30;8.88;;;;;;;23.72;71.16;101499.53;5067920;28;20684;-80
2022/06/03 05:52:08;;;;;;;11.60;8.43;;;;;;;23.71;71.21;101497.75;5059167;28;20116;-79
2022/06/03 05:54:54;;;;;;;;;;;;;;;23.69;71.14;101493.28;5067446;28;20107;-79
2022/06/03 05:57:32;;;;;;;10.75;8.88;;;;;;;23.71;71.00;101489.75;5053033;28;19912;-80
2022/06/03 06:00:34;;;;;;;13.68;9.30;;;;;;;23.74;70.90;101481.78;5075888;28;20029;-79
2022/06/03 06:03:28;;;;;;;13.38;9.18;;;;;;;23.66;71.30;101470.13;5053382;28;20104;-79
2022/06/03 06:06:21;;;;;;;16.17;9.20;;;;;;;23.76;70.96;101484.50;5052887;28;20040;-80
2022/06/03 06:08:52;;;;;;;16.17;9.25;;;;;;;23.75;70.97;101482.69;5066638;28;20032;-80
2022/06/03 06:11:38;;;;;;;13.35;8.90;;;;;;;23.72;71.09;101488.84;5068431;28;20028;-80
2022/06/03 06:14:38;;;;;;;15.40;8.83;;;;;;;23.76;71.00;101479.16;5087402;28;20136;-79
2022/06/03 06:17:26;;;;;;;17.42;8.70;;;;;;;23.82;70.42;101479.22;5066558;28;20056;-80
2022/06/03 06:19:59;;;;;;;13.63;8.90;;;;;;;23.82;70.55;101489.00;5077719;28;20032;-80
2022/06/03 06:22:29;;;;;;;13.40;8.57;;;;;;;23.81;70.70;101493.44;5066068;28;20509;-80
2022/06/03 06:24:59;;;;;;;14.52;9.05;;;;;;;23.78;70.67;101499.63;5091648;28;20028;-80
2022/06/03 06:27:43;;;;;;;13.65;8.43;;;;;;;23.85;70.42;101502.38;5084346;28;20032;-79
2022/06/03 06:30:14;;;;;;;15.10;8.68;;;;;;;23.88;70.48;101492.63;5058870;28;20025;-80
2022/06/03 06:33:04;;;;;;;17.63;8.65;;;;;;;23.88;69.88;101492.63;5053251;28;20025;-80
2022/06/03 06:36:07;;;;;;;13.10;8.80;;;;;;;23.90;69.67;101480.22;5060662;28;20016;-80
2022/06/03 06:39:01;;;;;;;13.50;8.90;;;;;;;23.82;70.10;101473.91;5068102;28;20025;-80
2022/06/03 06:41:39;;;;;;;11.60;8.30;;;;;;;23.87;69.96;101481.94;5077824;28;20363;-79
2022/06/03 06:44:13;;;;;;;14.77;8.43;;;;;;;23.86;70.36;101475.72;5088969;28;20024;-78
2022/06/03 06:46:57;;;;;;;14.32;8.57;;;;;;;23.90;70.03;101468.66;5069036;28;20096;-80
2022/06/03 06:49:53;;;;;;;17.10;8.27;;;;;;;23.91;70.33;101457.97;5068588;28;20028;-80
2022/06/03 06:52:22;;;;;;;13.48;8.65;;;;;;;23.91;70.37;101451.75;5060497;28;20417;-80
2022/06/03 06:54:56;;;;;;;12.25;7.78;;;;;;;23.92;70.10;101442.88;5072124;28;20037;-80
2022/06/03 06:57:25;;;;;;;17.45;8.32;;;;;;;23.86;70.46;101433.03;5066200;28;20021;-80
2022/06/03 06:59:57;;;;;;;15.38;8.25;;;;;;;23.93;70.30;101436.66;5052602;28;20016;-80
2022/06/03 07:02:42;;;;;;;14.88;7.82;;;;;;;23.93;70.27;101434.88;5078265;28;20107;-80
2022/06/03 07:05:17;;;;;;;14.82;8.43;;;;;;;23.94;70.23;101426.00;5064187;28;20108;-80
2022/06/03 07:08:34;;;;;;;15.73;8.70;;;;;;;23.97;69.82;101426.03;5078031;28;20028;-80
2022/06/03 07:11:14;;;;;;;12.93;8.35;;;;;;;23.95;70.07;101424.22;5056992;28;20032;-80
2022/06/03 07:13:43;;;;;;;16.30;8.68;;;;;;;23.95;70.16;101426.91;5083169;28;20016;-81
2022/06/03 07:16:15;;;;;;;14.85;8.50;;;;;;;23.96;70.03;101429.59;5075878;28;20563;-80
2022/06/03 07:21:55;;;;;;;14.60;8.43;;;;;;;23.99;70.09;101423.38;5078701;28;20038;-80
2022/06/03 07:24:49;;;;;;;12.98;7.95;;;;;;;23.98;70.23;101426.91;5070505;28;20478;-80
2022/06/03 07:27:28;;;;;;;27.02;8.43;;;;;;;24.16;67.66;101436.88;5063006;28;20138;-81
2022/06/03 07:30:10;;;;;;;26.55;7.32;;;;;;;24.24;66.17;101445.84;5088763;28;20497;-81
2022/06/03 07:32:45;;;;;;;20.63;7.40;;;;;;;24.11;66.59;101435.94;5058061;28;20025;-81
2022/06/03 07:35:16;;;;;;;25.38;7.60;;;;;;;24.07;67.55;101458.16;5060208;28;20051;-81
2022/06/03 07:37:53;;;;;;;28.90;7.97;;;;;;;24.08;68.09;101476.81;5074574;28;20040;-80
2022/06/03 07:40:33;;;;;;;36.70;8.68;;;;;;;24.06;68.45;101475.91;5062307;28;20383;-83
2022/06/03 07:43:05;;;;;;;34.15;8.63;;;;;;;24.06;68.77;101485.69;5073857;28;20021;-81
2022/06/03 07:45:50;;;;;;;32.22;8.50;;;;;;;24.09;68.76;101475.06;5065545;28;20072;-78
2022/06/03 07:48:22;;;;;;;30.25;7.78;;;;;;;24.45;65.11;101476.25;5054378;28;20557;-84
2022/06/03 07:50:58;;;;;;;26.33;7.50;;;;;;;24.65;63.39;101477.34;5087615;28;20498;-84
2022/06/03 07:53:58;;;;;;;25.58;7.32;;;;;;;24.55;64.66;101480.81;5072480;28;20128;-80
2022/06/03 07:56:28;;;;;;;25.98;7.40;;;;;;;24.24;66.32;101475.19;5068765;28;20028;-81
2022/06/03 07:58:58;;;;;;;24.75;7.25;;;;;;;24.22;66.81;101476.97;5065407;28;20033;-80
2022/06/03 08:01:26;;;;;;;31.92;7.72;;;;;;;24.17;67.20;101471.59;5063721;28;20090;-80
2022/06/03 08:03:53;;;;;;;34.33;8.20;;;;;;;24.16;67.43;101472.44;5079588;28;20052;-80
2022/06/03 08:12:06;;;;;;;588.42;39.00;;;;;;;24.29;67.13;101475.25;5077485;28;20051;-81
2022/06/03 08:14:31;;;;;;;;;;;;;;;24.66;65.81;101492.50;5083882;28;20123;-80
2022/06/03 08:16:57;;;;;;;772.03;61.50;;;;;;;24.90;65.34;101494.44;5071766;28;19977;-80
2022/06/03 08:19:27;;;;;;;;;;;;;;;24.92;65.58;101490.00;5071991;28;20060;-81
2022/06/03 08:21:56;;;;;;;849.05;64.55;;;;;;;24.96;65.25;101501.59;5082593;28;19916;-83
2022/06/03 08:24:24;;;;;;;290.40;25.23;;;;;;;24.89;64.19;101498.00;5077482;28;20056;-80
2022/06/03 08:27:01;;;;;;;184.00;17.63;;;;;;;24.90;63.50;101494.44;5060106;28;20037;-85
2022/06/03 08:29:36;;;;;;;194.20;17.67;;;;;;;24.74;64.95;101504.13;5054633;28;20031;-79
2022/06/03 08:32:06;;;;;;;201.88;18.50;;;;;;;24.52;65.83;101494.16;5077449;28;20416;-81
2022/06/03 08:34:34;;;;;;;114.90;14.90;;;;;;;24.65;66.38;101516.50;5085842;28;20105;-84
2022/06/03 08:37:00;;;;;;;145.40;13.25;;;;;;;24.98;65.48;101518.53;5060479;28;20067;-84
2022/06/03 08:39:27;;;;;;;;;;;;;;;25.08;64.81;101520.41;5064742;28;20067;-85
2022/06/03 08:41:58;;;;;;;62.95;9.15;;;;;;;25.04;64.11;101521.25;5057918;28;19924;-83
2022/06/03 08:44:45;;;;;;;63.70;8.85;;;;;;;24.91;64.41;101528.31;5064175;28;20053;-81
2022/06/03 08:47:26;;;;;;;1498.20;108.35;;;;;;;25.01;63.62;101521.22;5078783;28;20488;-81
2022/06/03 08:50:18;;;;;;;1208.63;94.45;;;;;;;24.91;64.42;101525.63;5070877;28;20008;-80
2022/06/03 08:53:07;;;;;;;713.50;49.90;;;;;;;24.87;63.17;101530.91;5047254;28;20040;-81
2022/06/03 08:55:46;;;;;;;610.95;45.20;;;;;;;24.83;64.17;101542.47;5059830;28;20381;-80
2022/06/03 08:58:36;;;;;;;592.35;46.03;;;;;;;24.75;65.34;101539.75;5063741;28;20063;-80
2022/06/03 09:01:11;;;;;;;576.08;45.83;;;;;;;24.74;66.10;101544.22;5069479;28;20024;-80
2022/06/03 09:03:52;;;;;;;513.03;42.78;;;;;;;24.73;66.06;101537.06;5071671;28;20482;-80
2022/06/03 09:06:40;;;;;;;537.60;40.88;;;;;;;24.75;66.62;101542.41;5067911;28;20032;-80
2022/06/03 09:09:13;;;;;;;471.77;39.13;;;;;;;24.77;66.51;101532.66;5054943;28;20028;-80
2022/06/03 09:11:53;;;;;;;455.17;38.65;;;;;;;24.66;67.12;101520.97;5070592;28;20031;-80
2022/06/03 09:14:23;;;;;;;428.30;35.55;;;;;;;24.63;67.69;101524.50;5068513;28;20037;-80
2022/06/03 09:16:53;;;;;;;383.85;34.80;;;;;;;24.66;67.26;101526.31;5068749;28;20055;-79
2022/06/03 09:19:26;;;;;;;387.27;34.67;;;;;;;24.57;67.35;101512.03;5064227;28;20028;-80
2022/06/03 09:21:54;;;;;;;350.05;31.25;;;;;;;24.65;67.76;101511.16;5085888;28;20024;-80
2022/06/03 09:24:25;;;;;;;326.40;30.80;;;;;;;24.66;67.67;101512.94;5065800;28;20124;-80
2022/06/03 09:26:55;;;;;;;318.88;30.65;;;;;;;24.69;67.67;101507.66;5069280;28;20107;-80
2022/06/03 09:29:21;;;;;;;304.05;27.77;;;;;;;24.66;67.51;101505.84;5070379;28;20029;-80
2022/06/03 09:31:50;;;;;;;;;;;;;;;24.72;67.56;101500.56;5080196;28;20501;-80
2022/06/03 09:34:18;;;;;;;253.57;25.35;;;;;;;24.69;67.63;101504.97;5054156;28;19916;-79
2022/06/03 09:36:45;;;;;;;229.63;24.17;;;;;;;24.54;67.75;101484.38;5057359;28;20445;-80
2022/06/03 09:39:13;;;;;;;222.45;24.20;;;;;;;24.68;67.73;101514.78;5056694;28;20112;-80
2022/06/03 09:41:42;;;;;;;184.90;19.17;;;;;;;24.79;66.77;101505.06;5056874;28;20039;-81
2022/06/03 09:44:12;;;;;;;144.95;16.65;;;;;;;24.62;66.63;101498.69;5057312;28;20033;-80
2022/06/03 09:46:38;;;;;;;161.18;17.65;;;;;;;24.67;66.88;101496.94;5064191;28;20112;-81
2022/06/03 09:49:05;;;;;;;112.50;14.52;;;;;;;24.76;66.31;101498.78;5061941;28;20032;-79
2022/06/03 09:54:24;;;;;;;76.80;13.97;;;;;;;24.72;66.25;101507.66;5063790;28;20513;-80
2022/06/03 09:56:52;;;;;;;72.80;12.65;;;;;;;24.59;67.19;101498.66;5069848;28;20024;-81
2022/06/03 09:59:19;;;;;;;67.55;12.75;;;;;;;24.64;67.35;101518.31;5068363;28;20032;-80
2022/06/03 10:01:46;;;;;;;71.90;12.35;;;;;;;24.67;67.61;101526.31;5065656;28;20024;-80
2022/06/03 10:04:12;;;;;;;71.72;12.20;;;;;;;24.68;67.65;101522.78;5070288;28;20016;-82
2022/06/03 10:06:43;;;;;;;;;;;;;;;24.98;65.09;101530.13;5086259;28;20027;-80
2022/06/03 10:15:37;;;;;;;45.33;10.57;;;;;;;24.70;66.61;101512.09;5082124;28;20429;-80
2022/06/03 10:17:32;;;;;;;45.13;9.20;;;;;;;24.74;67.00;101520.16;5070660;28;20029;-80
2022/06/03 10:19:57;;;;;;;;;;;;;;;24.79;66.94;101531.75;5067727;28;20028;-80
2022/06/03 10:22:24;;;;;;;37.70;9.05;;;;;;;24.97;65.61;101527.44;5070004;28;20002;-81
2022/06/03 10:25:02;;;;;;;26.23;8.27;;;;;;;25.48;64.00;101530.41;5070237;28;20029;-82
2022/06/03 10:27:27;;;;;;;32.08;8.43;;;;;;;25.59;62.89;101515.34;5066730;28;20032;-81
2022/06/03 10:29:53;;;;;;;;;;;;;;;25.91;65.50;101552.06;5049488;28;20374;-82
2022/06/03 10:32:22;;;;;;;25.50;9.98;;;;;;;25.56;68.97;101559.00;5066514;28;19908;-81
2022/06/03 10:34:48;;;;;;;28.33;11.50;;;;;;;25.47;69.88;101536.69;5068326;28;20025;-82
2022/06/03 10:37:15;;;;;;;;;;;;;;;25.32;70.32;101567.78;5032952;28;20036;-82
2022/06/03 10:39:43;;;;;;;24.33;9.45;;;;;;;25.04;70.54;101541.72;5054088;28;20385;-81
2022/06/03 10:42:18;;;;;;;23.73;10.40;;;;;;;25.14;70.42;101560.50;5059830;28;20116;-80
2022/06/03 10:44:49;;;;;;;24.15;10.55;;;;;;;25.07;70.83;101539.97;5064920;28;20028;-81
2022/06/03 10:47:43;;;;;;;26.92;10.35;;;;;;;25.10;70.67;101558.69;5049608;28;20021;-81
2022/06/03 10:50:29;;;;;;;20.63;10.25;;;;;;;25.04;70.36;101555.09;5045952;28;20102;-81
2022/06/03 11:01:56;;;;;;;17.55;9.73;;;;;;;25.04;70.17;101558.69;5049751;28;20032;-81
2022/06/03 11:04:27;;;;;;;20.67;9.50;;;;;;;25.02;69.97;101551.50;5059711;28;20036;-80
2022/06/03 11:06:54;;;;;;;19.23;10.02;;;;;;;24.94;70.15;101539.00;5066250;28;20074;-81
2022/06/03 11:09:22;;;;;;;19.88;10.15;;;;;;;24.93;70.16;101541.66;5059712;28;20394;-80
2022/06/03 11:12:04;;;;;;;17.25;9.77;;;;;;;24.99;70.15;101552.38;5069844;28;20416;-80
2022/06/03 11:14:39;;;;;;;17.45;8.73;;;;;;;24.91;70.30;101543.41;5059435;28;20040;-80
2022/06/03 11:17:16;;;;;;;23.58;9.40;;;;;;;25.05;70.24;101559.56;5066255;28;20091;-80
2022/06/03 11:19:47;;;;;;;16.27;8.85;;;;;;;25.01;70.31;101553.28;5062047;28;20028;-80
2022/06/03 11:22:39;;;;;;;19.08;8.82;;;;;;;25.04;69.91;101557.75;5070251;28;20089;-80
2022/06/03 11:25:14;;;;;;;17.00;9.10;;;;;;;25.07;69.98;101560.47;5059208;28;20032;-80
2022/06/03 11:27:52;;;;;;;13.52;8.57;;;;;;;25.05;70.31;101552.44;5069033;28;20025;-81
2022/06/03 11:30:46;;;;;;;17.13;8.73;;;;;;;25.09;70.21;101553.34;5054158;28;20025;-81
2022/06/03 11:33:36;;;;;;;16.02;8.40;;;;;;;25.06;70.01;101556.00;5060244;28;20024;-80
2022/06/03 11:36:21;;;;;;;15.15;8.65;;;;;;;24.98;70.13;101543.47;5073842;28;20055;-81
2022/06/03 11:39:03;;;;;;;17.63;9.18;;;;;;;24.89;70.32;101529.16;5061923;28;20029;-81
2022/06/03 11:41:33;;;;;;;17.70;9.00;;;;;;;25.06;70.35;101558.66;5059565;28;20378;-81
2022/06/03 11:44:11;;;;;;;17.08;9.05;;;;;;;25.08;70.21;101559.56;5077874;28;20064;-81
2022/06/03 11:46:39;;;;;;;14.98;8.65;;;;;;;25.05;70.25;101554.22;5073320;28;20026;-81
2022/06/03 11:49:06;;;;;;;15.30;8.93;;;;;;;25.08;70.40;101567.59;5073806;28;20124;-81
2022/06/03 11:51:33;;;;;;;14.38;8.48;;;;;;;25.08;70.13;101570.25;5059527;28;20044;-81
2022/06/03 11:53:59;;;;;;;20.30;8.70;;;;;;;25.10;70.05;101563.16;5073963;28;20132;-81
2022/06/03 11:56:27;;;;;;;16.25;8.88;;;;;;;25.09;70.12;101556.91;5072109;28;20020;-80
2022/06/03 11:58:56;;;;;;;14.57;8.63;;;;;;;25.09;70.28;101562.25;5066083;28;20483;-81
2022/06/03 12:01:44;;;;;;;18.20;8.85;;;;;;;25.10;70.23;101564.03;5056416;28;20037;-81
2022/06/03 12:04:34;;;;;;;17.92;8.55;;;;;;;25.08;70.47;101555.16;5055506;28;20040;-81
2022/06/03 12:07:28;;;;;;;16.48;8.60;;;;;;;25.09;70.41;101551.56;5072978;28;20035;-81
2022/06/03 12:10:20;;;;;;;17.13;8.10;;;;;;;25.13;70.34;101564.06;5073379;28;20028;-81
2022/06/03 12:13:22;;;;;;;13.93;8.30;;;;;;;25.12;70.51;101556.03;5053187;28;20036;-81
2022/06/03 12:15:53;;;;;;;13.05;8.10;;;;;;;25.15;70.30;101562.31;5067245;28;20044;-81
2022/06/03 12:18:31;;;;;;;17.05;8.63;;;;;;;25.16;70.30;101563.19;5068146;28;20039;-81
2022/06/03 12:20:59;;;;;;;12.77;7.53;;;;;;;25.15;70.47;101566.75;5073636;28;20020;-80
2022/06/03 12:23:24;;;;;;;15.85;8.32;;;;;;;25.16;70.45;101564.06;5076795;28;20051;-81
2022/06/03 12:25:53;;;;;;;;;;;;;;;25.18;70.03;101559.63;5068895;28;20025;-81
2022/06/03 12:28:20;;;;;;;15.27;8.07;;;;;;;25.16;70.26;101561.41;5057244;28;19974;-81
2022/06/03 12:30:56;;;;;;;16.33;8.40;;;;;;;25.14;70.30;101560.50;5066804;28;20119;-80
2022/06/03 12:34:07;;;;;;;14.68;7.88;;;;;;;25.16;70.39;101557.84;5063826;28;20029;-80
2022/06/03 12:36:46;;;;;;;15.07;8.63;;;;;;;25.15;70.56;101559.63;5044560;28;20120;-81
2022/06/03 12:39:23;;;;;;;11.38;7.88;;;;;;;25.15;70.63;101558.75;5058869;28;20040;-80
2022/06/03 12:41:48;;;;;;;;;;;;;;;25.22;70.16;101565.94;5065587;28;20473;-81
2022/06/03 12:44:23;;;;;;;14.60;8.23;;;;;;;25.21;70.39;101563.25;5067071;28;19934;-81
2022/06/03 12:46:48;;;;;;;11.73;7.70;;;;;;;25.21;70.17;101549.88;5053195;28;20024;-80
2022/06/03 12:49:19;;;;;;;;;;;;;;;25.24;70.16;101552.59;5066517;28;20024;-81
2022/06/03 12:52:05;;;;;;;12.73;7.72;;;;;;;25.15;70.25;101543.59;5055199;28;19913;-81